Time;durP1;ratioP1;P1;durP2;ratioP2;P2;SDS_P1;SDS_P2;PMS_P1;PMS_P2;Temp;Humidity;BMP_temperature;BMP_pressure;BME280_temperature;BME280_humidity;BME280_pressure;Samples;Min_cycle;Max_cycle;Signal;HPM_P1;HPM_P2
2022/05/29 00:01:58;;;;;;;17.20;12.70;;;;;;;6.87;100.00;98683.81;105252;1268;61491;-73
2022/05/29 00:04:25;;;;;;;17.10;12.40;;;;;;;6.84;100.00;98685.39;105237;1268;75172;-73
2022/05/29 00:06:55;;;;;;;18.50;13.90;;;;;;;6.81;100.00;98686.96;105238;1268;69553;-73
2022/05/29 00:09:31;;;;;;;16.50;14.00;;;;;;;6.79;100.00;98685.30;105231;1268;74250;-72
2022/05/29 00:11:59;;;;;;;20.20;15.10;;;;;;;6.79;100.00;98683.37;105260;1268;61316;-74
2022/05/29 00:14:26;;;;;;;16.70;13.70;;;;;;;6.81;100.00;98689.06;105271;1268;61460;-73
2022/05/29 00:16:53;;;;;;;17.00;13.90;;;;;;;6.81;100.00;98686.96;105008;1268;76145;-72
2022/05/29 00:19:19;;;;;;;15.70;12.40;;;;;;;6.78;100.00;98683.06;105241;1268;68620;-73
2022/05/29 00:21:46;;;;;;;18.20;14.20;;;;;;;6.72;100.00;98677.91;105262;1268;61268;-74
2022/05/29 00:24:14;;;;;;;22.60;14.40;;;;;;;6.69;100.00;98676.55;105187;1268;61317;-74
2022/05/29 00:26:41;;;;;;;18.80;13.80;;;;;;;6.67;100.00;98679.30;105248;1268;61273;-72
2022/05/29 00:29:08;;;;;;;18.70;15.40;;;;;;;6.64;100.00;98677.88;105223;1268;75153;-73
2022/05/29 00:31:36;;;;;;;18.20;13.80;;;;;;;6.62;100.00;98679.91;105275;1268;70092;-72
2022/05/29 00:34:02;;;;;;;18.00;13.80;;;;;;;6.59;100.00;98681.30;105225;1268;71774;-72
2022/05/29 00:36:39;;;;;;;17.50;13.80;;;;;;;6.53;100.00;98679.19;105215;1268;61272;-73
2022/05/29 00:39:09;;;;;;;15.50;13.30;;;;;;;6.47;100.00;98675.67;105210;1268;61313;-73
2022/05/29 00:41:37;;;;;;;21.40;13.30;;;;;;;6.40;100.00;98669.83;105215;1268;75377;-72
2022/05/29 00:44:19;;;;;;;16.00;13.30;;;;;;;6.34;100.00;98674.92;104992;1268;352985;-72
2022/05/29 00:46:51;;;;;;;17.70;13.10;;;;;;;6.26;100.00;98676.21;105391;1268;73143;-74
2022/05/29 00:49:22;;;;;;;16.00;13.10;;;;;;;6.20;100.00;98674.80;105243;1268;61403;-74
2022/05/29 00:51:58;;;;;;;18.50;14.10;;;;;;;6.14;100.00;98671.59;105224;1268;61326;-73
2022/05/29 00:54:25;;;;;;;20.00;15.30;;;;;;;6.10;100.00;98673.91;105192;1268;74476;-75
2022/05/29 00:56:53;;;;;;;18.90;13.60;;;;;;;6.07;100.00;98669.52;105089;1269;68666;-72
2022/05/29 00:59:23;;;;;;;17.90;14.70;;;;;;;6.03;100.00;98671.30;105382;1268;74538;-72
2022/05/29 01:01:51;;;;;;;23.30;14.00;;;;;;;6.02;100.00;98673.13;105053;1269;61467;-72
2022/05/29 01:04:18;;;;;;;18.10;13.90;;;;;;;6.00;100.00;98674.11;105069;1268;61556;-72
2022/05/29 01:06:45;;;;;;;21.80;16.00;;;;;;;5.99;100.00;98669.77;105207;1268;75792;-72
2022/05/29 01:09:11;;;;;;;18.20;14.30;;;;;;;5.99;100.00;98663.43;105209;1268;61371;-72
2022/05/29 01:11:44;;;;;;;16.50;13.50;;;;;;;5.99;100.00;98661.14;105221;1268;74412;-74
2022/05/29 01:14:21;;;;;;;21.30;14.70;;;;;;;5.99;100.00;98661.48;105154;1268;61377;-73
2022/05/29 01:16:47;;;;;;;20.50;15.30;;;;;;;5.99;100.00;98663.21;105197;1268;61459;-73
2022/05/29 01:19:18;;;;;;;18.00;13.60;;;;;;;5.97;100.00;98663.71;105234;1268;61284;-73
2022/05/29 01:22:22;;;;;;;18.20;13.60;;;;;;;5.91;100.00;98661.87;105228;1268;70710;-73
2022/05/29 01:24:58;;;;;;;21.30;15.40;;;;;;;5.88;100.00;98660.48;105197;1268;74270;-73
2022/05/29 01:27:44;;;;;;;18.60;14.50;;;;;;;5.87;100.00;98659.81;105222;1268;61275;-72
2022/05/29 01:30:24;;;;;;;17.10;14.00;;;;;;;5.88;100.00;98662.88;104914;1268;61237;-72
2022/05/29 01:33:11;;;;;;;20.20;13.30;;;;;;;5.89;100.00;98664.27;105251;1268;75299;-73
2022/05/29 01:36:06;;;;;;;16.60;13.40;;;;;;;5.86;100.00;98667.21;105245;1268;68613;-73
2022/05/29 01:38:44;;;;;;;18.60;12.70;;;;;;;5.86;100.00;98669.71;105207;1268;73651;-73
2022/05/29 01:41:34;;;;;;;17.20;13.50;;;;;;;5.85;100.00;98664.30;105251;1268;61281;-73
2022/05/29 01:44:10;;;;;;;21.60;13.60;;;;;;;5.84;100.00;98667.35;105243;1268;61773;-72
2022/05/29 01:46:37;;;;;;;16.50;12.80;;;;;;;5.83;100.00;98666.00;105180;1268;74797;-72
2022/05/29 01:49:28;;;;;;;15.90;12.90;;;;;;;5.82;100.00;98667.84;105236;1268;68123;-73
2022/05/29 01:52:06;;;;;;;16.00;12.40;;;;;;;5.80;100.00;98669.70;105183;1268;74456;-73
2022/05/29 01:54:38;;;;;;;18.30;12.70;;;;;;;5.78;100.00;98666.11;105204;1268;61322;-74
2022/05/29 01:57:10;;;;;;;17.30;13.10;;;;;;;5.77;100.00;98666.34;105178;1268;61342;-74
2022/05/29 01:59:59;;;;;;;21.10;14.10;;;;;;;5.77;100.00;98663.50;105192;1268;75095;-74
2022/05/29 02:02:34;;;;;;;17.10;13.10;;;;;;;5.75;100.00;98664.48;105201;1268;70553;-73
2022/05/29 02:05:07;;;;;;;17.80;12.60;;;;;;;5.72;100.00;98661.77;105219;1268;70310;-74
2022/05/29 02:07:50;;;;;;;16.00;13.00;;;;;;;5.72;100.00;98660.06;105208;1268;61406;-73
2022/05/29 02:10:23;;;;;;;17.80;12.80;;;;;;;5.68;100.00;98664.14;105243;1268;62047;-73
2022/05/29 02:12:55;;;;;;;15.60;11.70;;;;;;;5.65;100.00;98673.80;105241;1267;75136;-73
2022/05/29 02:15:31;;;;;;;16.70;12.10;;;;;;;5.63;100.00;98678.16;105020;1269;70143;-72
2022/05/29 02:18:02;;;;;;;18.10;12.30;;;;;;;5.61;100.00;98682.16;105393;1268;72183;-73
2022/05/29 02:20:36;;;;;;;17.60;12.10;;;;;;;5.57;100.00;98683.90;105224;1268;61293;-73
2022/05/29 02:23:11;;;;;;;14.40;12.00;;;;;;;5.55;100.00;98680.85;105225;1268;61371;-73
2022/05/29 02:25:40;;;;;;;14.50;12.10;;;;;;;5.53;100.00;98682.17;105200;1268;75541;-74
2022/05/29 02:28:25;;;;;;;15.80;12.70;;;;;;;5.52;100.00;98681.37;105212;1268;68514;-73
2022/05/29 02:30:52;;;;;;;15.30;12.50;;;;;;;5.51;100.00;98679.31;105177;1268;71330;-73
2022/05/29 02:33:36;;;;;;;16.00;13.50;;;;;;;5.51;100.00;98678.95;105249;1268;61634;-72
2022/05/29 02:36:23;;;;;;;14.50;12.70;;;;;;;5.51;100.00;98680.70;105242;1268;61284;-73
2022/05/29 02:38:56;;;;;;;17.30;12.80;;;;;;;5.52;100.00;98682.95;105171;1267;74217;-72
2022/05/29 02:41:48;;;;;;;16.20;11.80;;;;;;;5.52;100.00;98679.97;105212;1268;70117;-73
2022/05/29 02:44:35;;;;;;;14.60;11.70;;;;;;;5.53;100.00;98677.44;105213;1268;74485;-74
2022/05/29 02:47:17;;;;;;;18.60;12.60;;;;;;;5.56;100.00;98673.77;105200;1268;61168;-73
2022/05/29 02:50:04;;;;;;;16.00;12.00;;;;;;;5.57;100.00;98681.13;105238;1268;61274;-73
2022/05/29 02:52:30;;;;;;;12.90;11.00;;;;;;;5.56;100.00;98684.48;105192;1268;76208;-74
2022/05/29 02:54:58;;;;;;;14.70;11.30;;;;;;;5.57;100.00;98687.27;105223;1268;69252;-73
2022/05/29 02:57:25;;;;;;;15.70;11.50;;;;;;;5.59;100.00;98692.98;105142;1268;73341;-74
2022/05/29 03:00:02;;;;;;;12.50;10.50;;;;;;;5.63;100.00;98693.13;105252;1268;61325;-74
2022/05/29 03:02:45;;;;;;;13.20;10.70;;;;;;;5.68;100.00;98691.13;105275;1268;62627;-72
2022/05/29 03:05:31;;;;;;;13.30;10.30;;;;;;;5.71;100.00;98695.16;105291;1268;75399;-73
2022/05/29 03:08:30;;;;;;;12.40;9.90;;;;;;;5.77;100.00;98693.64;105261;1268;70398;-72
2022/05/29 03:11:30;;;;;;;11.00;9.20;;;;;;;5.81;100.00;98692.36;104761;1276;73278;-73
2022/05/29 03:14:06;;;;;;;11.90;10.20;;;;;;;5.87;100.00;98691.54;104211;1284;61579;-73
2022/05/29 03:16:57;;;;;;;12.70;9.40;;;;;;;5.96;100.00;98689.34;103945;1284;61511;-74
2022/05/29 03:19:39;;;;;;;12.90;11.40;;;;;;;6.15;100.00;98696.44;103909;1284;75469;-73
2022/05/29 03:22:20;;;;;;;10.90;9.00;;;;;;;7.18;100.00;98692.58;103886;1284;70239;-73
2022/05/29 03:25:09;;;;;;;10.70;8.40;;;;;;;8.34;100.00;98684.91;104015;1284;74853;-73
2022/05/29 03:27:40;;;;;;;8.20;7.00;;;;;;;9.37;100.00;98680.58;103870;1284;61289;-73
2022/05/29 03:30:16;;;;;;;9.70;6.90;;;;;;;10.22;100.00;98676.55;103996;1284;61441;-75
2022/05/29 03:32:43;;;;;;;9.20;6.60;;;;;;;10.93;100.00;98678.35;103943;1284;74194;-73
2022/05/29 03:35:21;;;;;;;8.30;6.50;;;;;;;11.57;100.00;98674.30;104018;1284;69480;-73
2022/05/29 03:37:49;;;;;;;8.00;6.80;;;;;;;12.27;100.00;98670.67;103929;1284;73532;-74
2022/05/29 03:40:16;;;;;;;7.50;5.80;;;;;;;12.88;100.00;98669.34;103904;1284;61343;-73
2022/05/29 03:42:43;;;;;;;9.70;6.90;;;;;;;13.47;100.00;98669.33;103804;1284;61762;-74
2022/05/29 03:45:11;;;;;;;8.90;5.80;;;;;;;14.05;100.00;98666.88;103929;1284;76261;-73
2022/05/29 03:47:39;;;;;;;6.70;5.70;;;;;;;14.54;100.00;98668.81;104072;1280;70294;-74
2022/05/29 03:50:10;;;;;;;7.70;5.90;;;;;;;15.01;100.00;98666.98;104768;1277;74257;-74
2022/05/29 03:52:37;;;;;;;7.80;5.20;;;;;;;15.47;99.04;98666.40;105196;1270;61493;-73
2022/05/29 03:55:05;;;;;;;7.80;5.10;;;;;;;15.83;97.71;98661.25;105210;1268;61339;-73
2022/05/29 03:57:31;;;;;;;8.30;5.30;;;;;;;16.32;96.00;98664.35;105264;1268;76081;-73
2022/05/29 03:59:58;;;;;;;8.20;5.50;;;;;;;16.70;94.19;98669.85;104979;1268;61399;-72
2022/05/29 04:02:25;;;;;;;8.30;5.50;;;;;;;17.00;92.86;98667.57;105191;1268;61403;-73
2022/05/29 04:04:52;;;;;;;5.90;4.70;;;;;;;17.36;91.58;98669.23;105200;1268;61281;-73
2022/05/29 04:07:18;;;;;;;6.70;5.10;;;;;;;17.70;89.76;98671.54;105231;1268;61128;-74
2022/05/29 04:12:30;;;;;;;7.00;5.20;;;;;;;18.41;87.19;98669.68;105212;1268;69273;-73
2022/05/29 04:14:57;;;;;;;8.30;5.40;;;;;;;18.50;84.83;98673.01;105224;1268;61300;-73
2022/05/29 04:17:23;;;;;;;6.00;5.50;;;;;;;18.62;84.44;98674.67;105208;1268;61453;-73
2022/05/29 04:19:50;;;;;;;6.30;5.50;;;;;;;18.78;83.75;98674.28;105034;1271;61316;-74
2022/05/29 04:22:20;;;;;;;5.30;4.80;;;;;;;19.03;82.85;98674.42;105185;1268;61297;-73
2022/05/29 04:24:46;;;;;;;7.00;5.30;;;;;;;19.24;81.29;98671.30;105455;1268;69350;-73
2022/05/29 04:27:15;;;;;;;7.00;4.80;;;;;;;19.53;79.55;98666.41;105230;1268;61403;-74
2022/05/29 04:29:42;;;;;;;6.40;5.20;;;;;;;19.72;78.30;98667.16;105220;1268;61345;-74
2022/05/29 04:34:58;;;;;;;6.70;5.90;;;;;;;19.83;77.08;98667.93;105190;1268;75352;-73
2022/05/29 04:37:27;;;;;;;5.60;5.00;;;;;;;20.19;76.41;98667.52;105201;1268;68603;-74
2022/05/29 04:39:54;;;;;;;7.10;5.00;;;;;;;20.47;75.55;98669.95;105326;1268;74297;-74
2022/05/29 04:42:20;;;;;;;8.70;5.10;;;;;;;20.65;74.60;98668.37;105203;1268;61352;-73
2022/05/29 04:44:47;;;;;;;8.00;5.40;;;;;;;20.87;73.88;98667.76;105226;1268;62252;-73
2022/05/29 04:47:14;;;;;;;7.40;5.00;;;;;;;21.02;72.82;98664.98;105207;1268;75502;-73
2022/05/29 04:49:40;;;;;;;8.60;4.90;;;;;;;21.11;71.78;98663.53;105194;1268;69302;-73
2022/05/29 04:52:08;;;;;;;8.60;4.60;;;;;;;21.26;69.03;98660.06;105221;1267;61186;-74
2022/05/29 04:54:37;;;;;;;6.70;4.80;;;;;;;21.56;67.86;98661.41;105329;1268;61314;-73
2022/05/29 04:57:06;;;;;;;5.10;4.50;;;;;;;21.73;66.51;98662.29;105038;1268;61319;-73
2022/05/29 04:59:34;;;;;;;6.70;4.80;;;;;;;21.83;64.65;98666.17;105227;1268;75061;-73
2022/05/29 05:02:02;;;;;;;6.20;4.50;;;;;;;21.76;58.28;98661.59;105178;1268;69383;-73
2022/05/29 05:04:29;;;;;;;6.00;4.50;;;;;;;21.54;57.18;98663.42;105306;1268;73424;-74
2022/05/29 05:06:58;;;;;;;6.70;4.70;;;;;;;21.46;57.38;98657.85;105255;1268;61332;-74
2022/05/29 05:09:26;;;;;;;6.50;4.60;;;;;;;21.67;57.59;98661.89;105284;1268;61337;-74
2022/05/29 05:11:54;;;;;;;5.60;4.80;;;;;;;21.83;56.75;98658.91;105360;1268;75165;-73
2022/05/29 05:14:22;;;;;;;4.80;4.10;;;;;;;21.89;55.81;98664.73;105247;1268;69806;-73
2022/05/29 05:16:49;;;;;;;7.00;4.70;;;;;;;22.01;54.86;98657.12;105101;1268;73266;-74
2022/05/29 05:19:16;;;;;;;5.00;4.20;;;;;;;22.12;54.86;98660.35;105025;1268;61357;-72
2022/05/29 05:21:43;;;;;;;6.20;4.10;;;;;;;22.20;53.75;98661.41;105215;1268;62012;-74
2022/05/29 05:24:09;;;;;;;5.40;4.00;;;;;;;22.26;52.26;98657.48;105235;1268;75296;-74
2022/05/29 05:26:36;;;;;;;4.90;3.70;;;;;;;22.44;51.59;98656.74;105272;1268;61297;-73
2022/05/29 05:29:04;;;;;;;5.40;3.60;;;;;;;22.62;50.65;98656.64;105313;1268;74500;-74
2022/05/29 05:31:31;;;;;;;4.70;3.60;;;;;;;22.85;49.21;98657.61;105465;1268;61428;-74
2022/05/29 05:33:57;;;;;;;5.20;3.50;;;;;;;22.83;47.94;98653.93;105533;1267;61300;-73
2022/05/29 05:36:24;;;;;;;4.00;3.40;;;;;;;22.75;46.95;98654.64;105442;1268;61510;-74
2022/05/29 05:38:51;;;;;;;4.20;2.50;;;;;;;22.75;46.32;98654.76;105284;1268;61268;-73
2022/05/29 05:41:17;;;;;;;4.20;2.70;;;;;;;22.57;44.40;98652.02;105239;1268;73221;-74
2022/05/29 05:43:44;;;;;;;5.80;3.00;;;;;;;22.59;45.06;98652.45;105240;1268;61279;-74
2022/05/29 05:46:13;;;;;;;4.00;2.60;;;;;;;22.71;44.60;98651.15;105241;1268;61223;-73
2022/05/29 05:48:40;;;;;;;4.30;2.20;;;;;;;22.61;44.07;98653.16;105372;1268;75269;-73
2022/05/29 05:51:08;;;;;;;5.90;3.50;;;;;;;22.45;41.62;98649.88;105304;1268;70482;-73
2022/05/29 05:53:36;;;;;;;5.00;2.20;;;;;;;22.19;41.68;98652.82;105262;1268;72682;-74
2022/05/29 05:56:11;;;;;;;2.50;1.80;;;;;;;21.76;41.21;98650.19;105244;1267;61315;-72
2022/05/29 05:58:39;;;;;;;5.30;2.20;;;;;;;21.62;41.96;98652.91;105240;1268;61365;-74
2022/05/29 06:01:09;;;;;;;3.50;2.30;;;;;;;21.80;41.69;98655.69;105287;1268;75563;-73
2022/05/29 06:03:36;;;;;;;3.40;1.90;;;;;;;21.88;41.83;98650.98;105225;1268;68389;-76
2022/05/29 06:06:03;;;;;;;4.90;2.00;;;;;;;21.66;40.79;98648.55;105172;1268;73489;-75
2022/05/29 06:08:30;;;;;;;4.80;2.10;;;;;;;21.45;41.11;98650.00;105215;1268;61344;-75
2022/05/29 06:10:57;;;;;;;3.00;1.80;;;;;;;21.36;41.21;98653.09;105236;1268;61769;-76
2022/05/29 06:13:23;;;;;;;3.70;1.90;;;;;;;21.24;40.54;98654.28;105251;1268;75125;-74
2022/05/29 06:15:50;;;;;;;3.90;2.00;;;;;;;21.05;40.04;98650.15;105189;1268;61374;-74
2022/05/29 06:18:17;;;;;;;3.20;1.80;;;;;;;20.82;40.54;98649.61;105247;1268;74337;-75
2022/05/29 06:20:45;;;;;;;3.40;1.50;;;;;;;20.67;41.61;98649.06;105324;1268;61364;-74
2022/05/29 06:23:13;;;;;;;3.30;1.60;;;;;;;20.79;41.89;98647.34;105244;1268;61249;-74
2022/05/29 06:25:40;;;;;;;4.00;1.70;;;;;;;20.91;41.57;98650.17;105244;1268;74003;-75
2022/05/29 06:28:08;;;;;;;3.20;1.50;;;;;;;20.86;41.42;98649.48;105205;1268;69410;-74
2022/05/29 06:30:35;;;;;;;3.10;1.40;;;;;;;20.64;41.03;98656.10;105272;1268;73534;-73
2022/05/29 06:33:02;;;;;;;5.00;1.30;;;;;;;20.44;41.40;98654.42;105155;1268;61173;-74
2022/05/29 06:35:29;;;;;;;4.80;1.50;;;;;;;20.24;40.78;98653.80;105253;1268;61371;-71
2022/05/29 06:37:56;;;;;;;4.50;1.70;;;;;;;20.14;41.59;98652.98;105246;1268;74807;-74
2022/05/29 06:40:22;;;;;;;4.30;1.70;;;;;;;20.12;41.55;98650.09;105237;1268;61403;-73
2022/05/29 06:42:49;;;;;;;2.90;1.50;;;;;;;19.89;40.96;98653.89;105234;1267;73230;-74
2022/05/29 06:45:15;;;;;;;5.70;1.80;;;;;;;19.77;42.43;98654.98;105196;1268;61319;-74
2022/05/29 06:47:42;;;;;;;4.00;1.80;;;;;;;19.86;42.11;98652.16;105265;1268;61357;-73
2022/05/29 06:50:10;;;;;;;4.90;2.40;;;;;;;19.73;42.09;98651.20;105286;1267;61192;-74
2022/05/29 06:52:36;;;;;;;4.50;1.70;;;;;;;19.81;42.47;98642.23;105280;1268;67961;-74
2022/05/29 06:55:04;;;;;;;3.40;1.60;;;;;;;20.04;42.98;98644.17;104990;1268;61196;-73
2022/05/29 06:57:37;;;;;;;3.90;2.30;;;;;;;20.33;42.98;98637.71;105266;1268;61314;-73
2022/05/29 07:08:31;;;;;;;3.10;1.40;;;;;;;21.01;42.52;98639.41;105203;1268;74371;-74
2022/05/29 07:11:21;;;;;;;3.10;1.60;;;;;;;21.01;42.46;98632.61;105255;1268;61304;-74
2022/05/29 07:13:48;;;;;;;5.30;1.80;;;;;;;20.98;42.96;98626.79;105005;1268;61190;-76
2022/05/29 07:16:15;;;;;;;2.80;1.50;;;;;;;21.07;43.12;98629.89;105237;1268;73421;-74
2022/05/29 07:18:42;;;;;;;3.00;1.40;;;;;;;21.13;42.29;98627.17;105221;1268;69558;-76
2022/05/29 07:21:09;;;;;;;1.80;1.30;;;;;;;20.89;41.58;98623.73;105212;1268;72130;-74
2022/05/29 07:23:36;;;;;;;4.50;1.80;;;;;;;20.31;40.82;98625.70;105195;1268;61412;-74
2022/05/29 07:26:04;;;;;;;3.60;1.40;;;;;;;19.58;41.87;98625.27;105269;1268;61199;-73
2022/05/29 07:28:30;;;;;;;2.20;1.30;;;;;;;19.12;43.13;98623.63;105234;1268;75104;-76
2022/05/29 07:30:57;;;;;;;4.00;1.20;;;;;;;18.88;43.96;98622.23;105229;1268;61285;-74
2022/05/29 07:33:25;;;;;;;4.60;1.30;;;;;;;18.84;44.38;98624.82;105194;1268;74757;-74
2022/05/29 07:35:52;;;;;;;4.30;1.40;;;;;;;18.78;44.75;98621.55;105241;1268;61285;-75
2022/05/29 07:38:19;;;;;;;4.50;1.60;;;;;;;18.72;44.74;98617.33;105253;1268;61249;-75
2022/05/29 07:40:45;;;;;;;4.40;1.40;;;;;;;18.53;45.02;98618.38;105207;1268;76715;-75
2022/05/29 07:43:24;;;;;;;4.00;1.60;;;;;;;18.43;45.29;98622.14;105198;1268;61366;-75
2022/05/29 07:45:56;;;;;;;2.90;1.10;;;;;;;18.26;44.64;98623.03;105226;1268;73425;-74
2022/05/29 07:48:26;;;;;;;5.40;1.70;;;;;;;17.98;44.50;98627.56;105236;1268;61326;-75
2022/05/29 07:50:53;;;;;;;3.50;1.30;;;;;;;17.73;44.65;98629.39;105240;1268;61214;-75
2022/05/29 07:53:21;;;;;;;5.40;1.50;;;;;;;17.59;45.16;98632.45;105223;1268;74185;-75
2022/05/29 07:55:48;;;;;;;2.90;1.20;;;;;;;17.63;45.87;98627.38;105230;1268;69266;-74
2022/05/29 07:58:16;;;;;;;6.90;1.10;;;;;;;17.51;45.37;98631.23;105043;1268;74758;-76
2022/05/29 08:00:43;;;;;;;4.90;1.60;;;;;;;17.38;45.09;98623.92;105148;1268;61377;-75
2022/05/29 08:03:10;;;;;;;4.70;1.70;;;;;;;17.27;45.73;98631.73;105190;1268;61255;-75
2022/05/29 08:05:38;;;;;;;2.40;1.30;;;;;;;17.51;46.53;98631.94;105224;1268;75095;-74
2022/05/29 08:08:08;;;;;;;3.10;1.40;;;;;;;17.88;47.10;98629.68;105285;1268;68490;-75
2022/05/29 08:10:38;;;;;;;4.10;1.30;;;;;;;18.06;46.57;98634.25;105237;1268;74153;-74
2022/05/29 08:13:05;;;;;;;3.60;1.40;;;;;;;18.20;47.07;98633.77;105261;1268;61273;-75
2022/05/29 08:15:32;;;;;;;3.20;1.30;;;;;;;18.39;46.80;98629.92;105236;1267;61288;-75
2022/05/29 08:17:58;;;;;;;3.50;1.30;;;;;;;18.49;45.43;98625.13;105243;1267;76185;-74
2022/05/29 08:20:27;;;;;;;4.60;1.40;;;;;;;18.32;45.72;98623.77;105214;1268;70734;-73
2022/05/29 08:22:53;;;;;;;3.50;1.50;;;;;;;18.35;46.68;98622.23;105199;1267;72595;-74
2022/05/29 08:30:54;;;;;;;6.50;1.30;;;;;;;18.67;45.52;98620.71;105217;1267;75143;-74
2022/05/29 08:33:23;;;;;;;3.80;1.20;;;;;;;18.52;45.96;98613.44;105238;1268;69172;-74
2022/05/29 08:35:59;;;;;;;2.50;1.40;;;;;;;18.64;45.99;98615.95;105251;1268;73670;-74
2022/05/29 08:38:25;;;;;;;5.90;1.60;;;;;;;18.78;46.31;98604.95;105295;1267;61359;-75
2022/05/29 08:40:57;;;;;;;2.90;1.20;;;;;;;18.83;44.25;98599.50;105209;1268;61284;-74
2022/05/29 08:43:34;;;;;;;3.40;1.20;;;;;;;18.70;43.97;98598.40;105277;1268;74232;-74
2022/05/29 08:46:15;;;;;;;4.40;1.40;;;;;;;18.61;44.69;98598.28;105390;1268;69138;-74
2022/05/29 08:48:41;;;;;;;3.20;1.30;;;;;;;18.73;45.55;98597.02;105205;1268;74569;-74
2022/05/29 08:51:28;;;;;;;4.70;1.30;;;;;;;18.96;45.61;98594.54;105228;1268;61454;-74
2022/05/29 08:54:09;;;;;;;4.50;1.60;;;;;;;19.20;45.02;98586.33;105528;1267;61243;-75
2022/05/29 08:56:50;;;;;;;2.90;1.50;;;;;;;19.33;44.61;98587.14;105237;1266;76383;-75
2022/05/29 08:59:50;;;;;;;3.00;1.60;;;;;;;19.21;43.78;98586.43;105259;1268;68592;-74
2022/05/29 09:02:28;;;;;;;5.00;1.20;;;;;;;18.68;43.71;98589.05;105242;1268;75123;-73
2022/05/29 09:05:16;;;;;;;3.40;1.40;;;;;;;18.49;44.30;98592.00;105249;1268;61254;-74
2022/05/29 09:07:45;;;;;;;3.20;1.40;;;;;;;18.35;44.47;98597.23;105045;1268;61351;-73
2022/05/29 09:10:19;;;;;;;2.60;1.70;;;;;;;18.30;44.22;98595.46;105294;1268;76556;-75
2022/05/29 09:12:53;;;;;;;3.80;1.40;;;;;;;18.19;43.36;98594.38;105122;1268;68825;-75
2022/05/29 09:15:36;;;;;;;3.60;1.40;;;;;;;18.25;43.34;98596.77;105307;1268;74003;-74
2022/05/29 09:18:11;;;;;;;2.60;1.30;;;;;;;18.49;44.06;98592.95;105240;1268;61253;-74
2022/05/29 09:20:44;;;;;;;2.50;1.20;;;;;;;19.02;44.44;98594.61;105268;1268;61374;-74
2022/05/29 09:23:20;;;;;;;3.10;1.10;;;;;;;19.46;44.07;98587.35;105219;1268;75843;-74
2022/05/29 09:25:47;;;;;;;2.50;1.30;;;;;;;19.70;43.60;98587.33;105215;1268;69196;-74
2022/05/29 09:28:24;;;;;;;2.20;1.20;;;;;;;19.78;42.53;98582.69;105019;1268;72710;-74
2022/05/29 09:31:05;;;;;;;4.00;1.30;;;;;;;19.59;42.87;98582.20;105383;1268;61342;-74
2022/05/29 09:33:32;;;;;;;2.00;1.10;;;;;;;19.84;43.60;98582.02;105310;1268;61242;-74
2022/05/29 09:36:02;;;;;;;2.30;1.30;;;;;;;20.13;43.57;98574.48;105232;1268;74732;-74
2022/05/29 09:38:35;;;;;;;2.90;1.40;;;;;;;20.41;43.31;98571.24;105238;1268;69513;-74
2022/05/29 09:41:09;;;;;;;2.20;1.00;;;;;;;20.79;43.63;98565.48;105221;1268;73780;-75
2022/05/29 09:43:35;;;;;;;2.80;1.00;;;;;;;21.15;43.44;98566.84;105243;1268;61285;-73
2022/05/29 09:46:31;;;;;;;3.00;1.20;;;;;;;21.44;42.80;98560.94;105243;1268;61313;-75
2022/05/29 09:51:58;;;;;;;2.90;1.70;;;;;;;21.89;42.50;98547.89;104533;1277;70148;-73
2022/05/29 09:54:33;;;;;;;2.80;1.10;;;;;;;22.05;41.46;98538.22;104466;1278;74236;-75
2022/05/29 09:57:09;;;;;;;2.80;1.70;;;;;;;22.19;41.33;98534.83;104592;1277;61534;-74
2022/05/29 09:59:39;;;;;;;3.50;1.30;;;;;;;22.35;41.09;98533.23;104542;1278;61358;-73
2022/05/29 10:02:12;;;;;;;1.80;0.90;;;;;;;22.48;41.06;98529.86;104535;1277;73503;-74
2022/05/29 10:04:41;;;;;;;3.20;1.20;;;;;;;22.54;40.31;98522.94;104521;1278;68785;-75
2022/05/29 10:07:33;;;;;;;3.20;1.10;;;;;;;22.46;40.00;98519.08;104515;1278;74251;-73
2022/05/29 10:10:11;;;;;;;3.10;1.40;;;;;;;22.57;40.62;98517.67;104019;1284;61325;-74
2022/05/29 10:12:39;;;;;;;2.80;0.90;;;;;;;22.68;39.80;98516.70;104155;1284;62333;-75
2022/05/29 10:15:14;;;;;;;2.60;1.30;;;;;;;22.55;38.35;98515.02;104240;1284;75278;-74
2022/05/29 10:17:41;;;;;;;3.70;1.60;;;;;;;22.40;39.09;98518.13;104472;1284;69250;-75
2022/05/29 10:20:36;;;;;;;2.50;1.10;;;;;;;22.52;39.33;98519.08;104034;1284;73281;-74
2022/05/29 10:23:06;;;;;;;2.60;1.20;;;;;;;22.49;38.18;98523.02;103443;1291;61421;-74
2022/05/29 10:25:42;;;;;;;3.50;1.30;;;;;;;22.34;38.02;98523.01;103582;1283;61700;-75
2022/05/29 10:28:14;;;;;;;4.60;1.50;;;;;;;22.30;38.25;98522.32;104016;1283;74381;-76
2022/05/29 10:30:58;;;;;;;1.90;1.20;;;;;;;22.12;37.44;98517.46;104425;1282;69506;-75
2022/05/29 10:33:28;;;;;;;2.60;1.20;;;;;;;21.48;37.39;98519.92;104001;1282;73278;-75
2022/05/29 10:36:19;;;;;;;2.90;1.30;;;;;;;20.81;37.32;98525.80;104320;1283;61405;-75
2022/05/29 10:38:46;;;;;;;3.10;1.40;;;;;;;20.15;37.94;98533.23;104299;1283;61235;-74
2022/05/29 10:41:12;;;;;;;1.80;1.30;;;;;;;19.83;38.46;98523.73;104093;1283;75722;-73
2022/05/29 10:43:51;;;;;;;3.50;1.30;;;;;;;19.88;39.07;98523.11;104319;1283;70303;-74
2022/05/29 10:46:23;;;;;;;2.80;1.20;;;;;;;19.79;38.82;98521.42;104274;1283;73260;-74
2022/05/29 10:49:08;;;;;;;3.30;1.30;;;;;;;19.54;39.96;98519.34;104851;1277;61378;-73
2022/05/29 10:52:07;;;;;;;2.90;1.10;;;;;;;19.47;40.37;98518.34;104827;1277;61401;-75
2022/05/29 10:54:57;;;;;;;4.80;1.60;;;;;;;19.74;39.87;98512.66;104819;1276;75417;-74
2022/05/29 10:57:48;;;;;;;3.00;1.50;;;;;;;19.80;39.20;98510.18;104786;1277;70296;-75
2022/05/29 11:00:15;;;;;;;1.80;1.30;;;;;;;19.80;39.04;98504.23;104976;1271;73318;-75
2022/05/29 11:03:39;;;;;;;4.10;1.20;;;;;;;19.54;38.31;98511.27;105247;1268;61258;-74
2022/05/29 11:06:22;;;;;;;3.20;1.40;;;;;;;19.36;39.86;98507.77;104399;1277;61245;-74
2022/05/29 11:09:04;;;;;;;3.50;1.20;;;;;;;19.34;39.72;98507.27;104471;1278;75802;-74
2022/05/29 11:11:52;;;;;;;5.30;1.40;;;;;;;19.22;40.08;98510.35;104484;1277;69342;-74
2022/05/29 11:14:39;;;;;;;2.20;1.00;;;;;;;19.41;39.45;98505.54;104504;1278;73842;-75
2022/05/29 11:17:11;;;;;;;1.90;0.90;;;;;;;19.69;40.08;98503.61;104574;1277;61321;-76
2022/05/29 11:19:47;;;;;;;2.20;1.30;;;;;;;19.82;39.36;98503.27;104604;1278;61394;-74
2022/05/29 11:22:52;;;;;;;3.70;1.20;;;;;;;19.84;38.90;98499.42;104593;1278;75459;-73
2022/05/29 11:25:37;;;;;;;2.50;1.30;;;;;;;19.75;38.34;98493.25;103945;1284;70790;-75
2022/05/29 11:28:12;;;;;;;2.00;0.90;;;;;;;19.77;38.36;98487.43;103942;1284;74669;-74
2022/05/29 11:31:08;;;;;;;3.40;1.60;;;;;;;19.90;38.82;98484.21;104025;1284;61207;-74
2022/05/29 11:33:56;;;;;;;2.10;1.30;;;;;;;20.30;38.87;98478.36;103988;1284;62290;-74
2022/05/29 11:36:55;;;;;;;2.60;1.20;;;;;;;20.56;36.96;98466.52;104140;1278;73744;-74
2022/05/29 11:39:30;;;;;;;2.20;1.00;;;;;;;20.51;37.19;98461.83;103911;1284;70799;-74
2022/05/29 11:42:23;;;;;;;3.90;1.20;;;;;;;20.21;36.62;98458.21;103976;1284;74353;-75
2022/05/29 11:44:58;;;;;;;2.50;1.20;;;;;;;19.81;36.79;98446.44;103897;1284;61511;-75
2022/05/29 11:53:40;;;;;;;3.20;1.10;;;;;;;19.80;36.53;98427.06;103934;1285;70358;-75
2022/05/29 11:56:24;;;;;;;1.70;0.90;;;;;;;20.10;37.18;98419.35;104165;1284;73461;-75
2022/05/29 11:59:00;;;;;;;3.40;1.20;;;;;;;20.59;36.54;98415.46;103986;1284;61430;-74
2022/05/29 12:01:43;;;;;;;3.30;1.30;;;;;;;20.92;36.06;98417.64;103964;1284;61908;-74
2022/05/29 12:04:30;;;;;;;2.60;1.10;;;;;;;21.18;35.01;98431.40;104608;1279;76281;-72
2022/05/29 12:07:01;;;;;;;3.40;1.60;;;;;;;21.31;34.57;98434.98;104625;1278;68773;-74
2022/05/29 12:09:36;;;;;;;2.90;1.90;;;;;;;21.30;33.91;98442.38;104575;1280;73197;-74
2022/05/29 12:12:43;;;;;;;2.90;1.40;;;;;;;21.16;33.97;98444.81;104564;1278;61233;-75
2022/05/29 12:15:17;;;;;;;1.70;1.50;;;;;;;21.24;34.79;98446.70;104001;1284;61829;-74
2022/05/29 12:18:13;;;;;;;2.50;1.40;;;;;;;21.45;34.73;98444.36;104729;1277;76323;-74